メインページ
METAR-TAF:

METAR-TAF

空港 :

Rugby, ノースダコタ州, アメリカ合衆国

緯度: 48-23-25N, 経度: 100-01-27W, 海抜: 472m

現時点の気象観測

当レポートは2時間24分前の08:55(UTC)に作成
南西の風 5kt
気温 -6°C
湿度 79%
気圧 1009 hPa
視程: 16.1km
晴天

METAR: KRUG 220855Z AUTO 22005KT 10SM CLR M06/M09 A2980 RMK AO2

時間: 05:19 (11:19 UTC)


TAF: 見つかりません

4,000以上の空港の気象観測と天気予報(METAR報とTAF報)

利用可能な観測所は地図上に黄色い丸と赤い丸で示す。

丸の上にカーソルを重ねると観測所名を参照できる。

次にクリックすると気象観測と天気予報を参照できる。

マップの切り替え:黒色「×」印の緑ボタンをクリックして拡大、「-」印の緑ボタンをクリックして縮小、緑色の三角印をクリックして隣りの地図に切り替え


METAR-TAF: